Time;durP1;ratioP1;P1;durP2;ratioP2;P2;SDS_P1;SDS_P2;PMS_P1;PMS_P2;Temp;Humidity;BMP_temperature;BMP_pressure;BME280_temperature;BME280_humidity;BME280_pressure;Samples;Min_cycle;Max_cycle;Signal;HPM_P1;HPM_P2
2024/04/07 00:01:12;;;;;;;5.25;2.08;;;;;;;16.46;55.96;98093.81;5026081;28;20029;-77
2024/04/07 00:03:39;;;;;;;3.60;2.38;;;;;;;16.48;56.38;98097.06;5015637;28;20037;-77
2024/04/07 00:06:04;;;;;;;5.47;2.38;;;;;;;16.44;56.42;98085.13;5004448;28;20024;-78
2024/04/07 00:08:29;;;;;;;3.20;2.03;;;;;;;16.39;56.65;98076.19;5017755;28;20034;-78
2024/04/07 00:10:55;;;;;;;3.00;2.15;;;;;;;16.43;56.94;98082.69;5020413;28;20116;-78
2024/04/07 00:13:20;;;;;;;4.07;2.50;;;;;;;16.41;57.36;98080.25;5031746;28;20647;-76
2024/04/07 00:15:46;;;;;;;4.53;2.50;;;;;;;16.30;57.80;98073.28;5019125;28;20039;-76
2024/04/07 00:18:11;;;;;;;3.47;2.83;;;;;;;16.20;57.84;98065.22;5039420;28;20550;-76
2024/04/07 00:20:38;;;;;;;2.72;2.20;;;;;;;16.19;58.46;98063.59;5019670;28;20021;-75
2024/04/07 00:23:03;;;;;;;4.78;2.35;;;;;;;16.15;58.72;98069.88;5058805;28;20049;-77
2024/04/07 00:25:29;;;;;;;3.38;2.30;;;;;;;16.08;58.48;98053.88;5010956;28;20041;-77
2024/04/07 00:27:54;;;;;;;4.53;2.47;;;;;;;16.09;59.00;98065.56;5018122;28;20041;-76
2024/04/07 00:30:19;;;;;;;5.63;2.38;;;;;;;15.77;59.12;98025.31;5025883;28;20020;-75
2024/04/07 00:32:45;;;;;;;3.65;2.00;;;;;;;15.81;58.98;98042.66;5041794;28;20037;-76
2024/04/07 00:35:10;;;;;;;2.65;2.08;;;;;;;15.85;59.38;98055.41;5035009;28;20032;-77
2024/04/07 00:37:35;;;;;;;3.10;1.95;;;;;;;15.71;59.74;98050.88;5008658;28;20048;-76
2024/04/07 00:40:01;;;;;;;4.95;2.20;;;;;;;15.69;59.50;98045.72;5032815;28;20029;-76
2024/04/07 00:42:26;;;;;;;3.13;2.20;;;;;;;15.68;59.55;98046.03;5029240;28;20077;-76
2024/04/07 00:44:52;;;;;;;1.80;1.70;;;;;;;15.56;59.64;98040.13;5016511;28;1043324;-75
2024/04/07 00:47:17;;;;;;;3.38;2.10;;;;;;;15.50;59.18;98038.50;5052072;28;20312;-74
2024/04/07 00:49:43;;;;;;;4.05;2.13;;;;;;;15.63;59.27;98056.91;5018714;28;20025;-75
2024/04/07 00:52:10;;;;;;;3.13;2.08;;;;;;;15.46;59.07;98037.44;5016332;28;20037;-75
2024/04/07 00:54:35;;;;;;;3.55;2.00;;;;;;;15.41;59.02;98042.88;5024109;28;20025;-75
2024/04/07 00:57:01;;;;;;;5.55;2.22;;;;;;;15.45;57.57;98043.97;5028354;28;20404;-74
2024/04/07 00:59:26;;;;;;;3.75;2.10;;;;;;;15.49;57.53;98061.31;5010374;28;20120;-74
2024/04/07 01:01:52;;;;;;;4.03;1.83;;;;;;;15.47;57.82;98063.50;5018389;28;20059;-74
2024/04/07 01:04:17;;;;;;;4.30;1.95;;;;;;;15.31;58.45;98040.22;5048554;28;20162;-75
2024/04/07 01:06:43;;;;;;;3.03;1.77;;;;;;;15.39;57.88;98062.16;5024770;28;20033;-74
2024/04/07 01:09:08;;;;;;;4.05;1.52;;;;;;;15.43;56.84;98073.25;5026751;28;20112;-75
2024/04/07 01:11:35;;;;;;;4.95;1.77;;;;;;;15.38;56.85;98055.09;5019308;28;20386;-74
2024/04/07 01:14:02;;;;;;;2.92;1.40;;;;;;;15.45;56.79;98065.69;5032611;28;20024;-74
2024/04/07 01:16:27;;;;;;;3.00;1.67;;;;;;;15.34;57.02;98045.88;5035533;28;20489;-74
2024/04/07 01:18:52;;;;;;;2.72;1.80;;;;;;;15.46;56.87;98068.13;5014600;28;20057;-73
2024/04/07 01:21:18;;;;;;;2.67;1.75;;;;;;;15.39;55.99;98045.03;5015664;28;20037;-74
2024/04/07 01:23:43;;;;;;;3.83;1.70;;;;;;;15.40;55.23;98041.25;5050941;28;20399;-74
2024/04/07 01:26:09;;;;;;;2.17;1.60;;;;;;;15.57;55.19;98055.28;5041459;28;20037;-74
2024/04/07 01:28:35;;;;;;;2.35;1.73;;;;;;;15.50;54.94;98041.22;5050126;28;20021;-73
2024/04/07 01:31:01;;;;;;;1.98;1.52;;;;;;;15.59;54.93;98051.22;5028836;28;20542;-73
2024/04/07 01:33:27;;;;;;;2.38;1.60;;;;;;;15.59;55.65;98053.94;5050009;28;20017;-74
2024/04/07 01:35:52;;;;;;;3.35;1.83;;;;;;;15.64;55.02;98047.66;5032755;28;20037;-73
2024/04/07 01:38:18;;;;;;;3.15;1.75;;;;;;;15.63;53.94;98046.06;5048018;28;20036;-75
2024/04/07 01:40:47;;;;;;;2.63;1.50;;;;;;;15.68;52.59;98038.66;5049376;28;20111;-75
2024/04/07 01:43:12;;;;;;;2.60;1.60;;;;;;;15.81;51.90;98048.09;5035779;28;20495;-76
2024/04/07 01:45:38;;;;;;;2.95;1.60;;;;;;;15.84;52.37;98042.13;5050318;22;20034;-74
2024/04/07 01:48:04;;;;;;;2.05;1.55;;;;;;;15.82;53.27;98039.66;4997361;28;20128;-74
2024/04/07 01:50:29;;;;;;;3.33;1.50;;;;;;;15.82;53.49;98047.03;4976953;28;20412;-74
2024/04/07 01:52:54;;;;;;;3.65;1.70;;;;;;;15.68;54.23;98027.81;5014755;28;20040;-74
2024/04/07 01:55:20;;;;;;;2.45;1.85;;;;;;;15.77;54.12;98047.06;5012355;28;20047;-74
2024/04/07 01:57:45;;;;;;;6.18;1.80;;;;;;;15.69;54.40;98017.75;5015300;28;20557;-74
2024/04/07 02:00:11;;;;;;;5.63;1.80;;;;;;;15.77;53.87;98044.34;4997529;28;20104;-73
2024/04/07 02:02:37;;;;;;;2.60;1.75;;;;;;;15.68;52.84;98011.50;5032748;28;20029;-75
2024/04/07 02:05:05;;;;;;;1.58;1.33;;;;;;;15.90;52.32;98030.13;4998193;28;20123;-73
2024/04/07 02:07:31;;;;;;;1.83;1.45;;;;;;;15.83;52.43;98007.91;4993136;28;20024;-74
2024/04/07 02:09:56;;;;;;;2.45;1.70;;;;;;;15.89;53.01;98017.66;4997550;28;20029;-73
2024/04/07 02:12:21;;;;;;;1.60;1.50;;;;;;;15.85;53.12;98011.13;5032176;28;20025;-73
2024/04/07 02:14:47;;;;;;;3.70;1.77;;;;;;;15.89;52.01;98006.78;5032088;28;20052;-73
2024/04/07 02:17:12;;;;;;;2.42;1.30;;;;;;;16.02;50.87;98010.75;5032504;28;20029;-75
2024/04/07 02:19:38;;;;;;;2.17;1.42;;;;;;;16.17;50.12;98014.16;5014858;28;20041;-75
2024/04/07 02:22:04;;;;;;;2.05;1.40;;;;;;;16.30;49.61;98018.94;5016870;28;20056;-75
2024/04/07 02:24:30;;;;;;;1.95;1.27;;;;;;;16.40;49.53;98016.13;5017641;28;20444;-74
2024/04/07 02:26:55;;;;;;;1.88;1.65;;;;;;;16.41;48.93;97997.88;5016626;28;20029;-74
2024/04/07 02:29:21;;;;;;;3.13;1.40;;;;;;;16.50;48.36;97991.53;5031964;28;20033;-74
2024/04/07 02:31:46;;;;;;;3.38;1.40;;;;;;;16.74;47.47;98001.66;5013953;28;20750;-74
2024/04/07 02:34:13;;;;;;;2.38;1.50;;;;;;;16.85;46.51;97987.66;5033831;28;20084;-74
2024/04/07 02:36:39;;;;;;;3.67;1.25;;;;;;;16.95;45.67;97970.41;5014578;28;20025;-75
2024/04/07 02:39:09;;;;;;;2.20;1.27;;;;;;;17.12;45.33;97971.56;5013032;28;20037;-74
2024/04/07 02:41:37;;;;;;;3.22;1.40;;;;;;;17.22;44.48;97967.91;5022994;28;20105;-72
2024/04/07 02:44:03;;;;;;;3.40;1.23;;;;;;;17.41;44.52;97976.88;4998241;28;20057;-72
2024/04/07 02:49:16;;;;;;;2.55;1.45;;;;;;;17.62;43.92;97991.84;5015884;28;20568;-72
2024/04/07 02:51:41;;;;;;;3.10;1.70;;;;;;;17.68;43.91;97990.69;5031658;28;20101;-72
2024/04/07 02:54:07;;;;;;;1.70;1.30;;;;;;;17.59;44.72;97987.03;5030413;28;20037;-72
2024/04/07 02:56:32;;;;;;;3.90;1.50;;;;;;;17.49;46.80;97980.84;5013742;28;20021;-74
2024/04/07 02:58:57;;;;;;;2.22;1.65;;;;;;;17.33;48.65;97977.56;5035073;28;20029;-72
2024/04/07 03:01:23;;;;;;;1.90;1.63;;;;;;;17.03;49.46;97956.19;5014114;28;20105;-73
2024/04/07 03:03:48;;;;;;;2.22;1.80;;;;;;;16.86;50.11;97955.84;5028655;28;20030;-73
2024/04/07 03:06:14;;;;;;;1.98;1.63;;;;;;;16.86;50.41;97972.16;4997518;28;20033;-73
2024/04/07 03:08:40;;;;;;;1.70;1.60;;;;;;;16.73;50.09;97967.44;5013708;28;20029;-74
2024/04/07 03:11:06;;;;;;;2.20;1.65;;;;;;;16.72;49.67;97972.06;4996581;28;20026;-73
2024/04/07 03:13:32;;;;;;;3.25;1.50;;;;;;;16.63;49.26;97964.81;4978429;28;20493;-74
2024/04/07 03:15:58;;;;;;;2.47;1.65;;;;;;;16.63;50.02;97970.25;5021953;28;20033;-74
2024/04/07 03:18:23;;;;;;;2.78;1.70;;;;;;;16.45;49.84;97950.81;5013721;28;20033;-73
2024/04/07 03:20:49;;;;;;;2.75;1.40;;;;;;;16.52;49.31;97962.19;5034474;28;20037;-73
2024/04/07 03:23:14;;;;;;;1.83;1.50;;;;;;;16.64;49.38;97977.31;5013838;28;20033;-75
2024/04/07 03:25:40;;;;;;;2.95;1.63;;;;;;;16.62;49.25;97972.16;4999243;28;20049;-73
2024/04/07 03:28:06;;;;;;;2.92;1.50;;;;;;;16.58;49.39;97961.06;5040813;28;20103;-73
2024/04/07 03:30:32;;;;;;;2.75;1.48;;;;;;;16.65;49.32;97960.72;5027142;28;20035;-73
2024/04/07 03:32:57;;;;;;;4.78;1.70;;;;;;;16.67;48.91;97958.50;5002915;28;20047;-72
2024/04/07 03:35:23;;;;;;;3.25;1.60;;;;;;;16.77;49.64;97968.47;5002558;28;20026;-72
2024/04/07 03:37:50;;;;;;;2.60;1.77;;;;;;;16.79;48.75;97966.25;5020686;28;20043;-73
2024/04/07 03:40:15;;;;;;;1.98;1.60;;;;;;;16.77;49.09;97963.84;5016312;28;20511;-73
2024/04/07 03:42:41;;;;;;;2.08;1.40;;;;;;;16.75;48.93;97962.50;5025110;28;20037;-74
2024/04/07 03:45:09;;;;;;;2.80;1.40;;;;;;;16.78;49.21;97960.00;5017104;28;20036;-73
2024/04/07 03:47:38;;;;;;;1.77;1.40;;;;;;;16.75;49.13;97954.34;5003740;28;20124;-73
2024/04/07 03:50:04;;;;;;;3.20;1.60;;;;;;;16.70;49.62;97946.25;5016707;28;20021;-73
2024/04/07 03:52:29;;;;;;;2.05;1.50;;;;;;;16.73;50.65;97967.44;5027143;28;20390;-74
2024/04/07 03:54:55;;;;;;;3.22;1.80;;;;;;;16.55;51.89;97961.63;5001039;28;20037;-72
2024/04/07 03:57:20;;;;;;;2.45;1.45;;;;;;;16.44;52.37;97970.97;5024185;28;20127;-72
2024/04/07 03:59:46;;;;;;;4.05;1.77;;;;;;;16.37;52.73;97975.94;5022740;28;20029;-72
2024/04/07 04:02:29;;;;;;;2.90;1.80;;;;;;;16.19;53.14;97987.50;5006600;28;20033;-73
2024/04/07 04:04:59;;;;;;;3.55;2.15;;;;;;;16.03;53.41;97977.06;5013082;28;20167;-72
2024/04/07 04:07:27;;;;;;;2.30;1.75;;;;;;;15.94;54.18;97986.91;5032955;28;20029;-73
2024/04/07 04:09:53;;;;;;;5.90;2.00;;;;;;;15.85;54.19;98011.13;5016113;28;20108;-73
2024/04/07 04:12:18;;;;;;;3.33;1.90;;;;;;;15.70;53.73;98032.97;5016491;28;20388;-73
2024/04/07 04:14:44;;;;;;;2.17;1.98;;;;;;;15.19;54.84;98037.84;5016124;28;20037;-73
2024/04/07 04:17:11;;;;;;;5.65;2.00;;;;;;;15.30;54.99;98031.25;5016653;28;20115;-73
2024/04/07 04:19:36;;;;;;;3.72;2.03;;;;;;;15.37;55.13;98037.19;5035275;28;20040;-73
2024/04/07 04:22:01;;;;;;;3.15;2.00;;;;;;;15.37;55.15;98047.22;5020876;28;20029;-73
2024/04/07 04:24:27;;;;;;;3.35;2.05;;;;;;;15.41;55.23;98048.28;5019233;28;20484;-73
2024/04/07 04:26:52;;;;;;;3.50;1.80;;;;;;;15.26;55.21;98023.97;5016027;28;20049;-74
2024/04/07 04:29:17;;;;;;;3.70;1.88;;;;;;;15.30;55.87;98044.00;5023599;28;20029;-74
2024/04/07 04:31:43;;;;;;;4.68;2.00;;;;;;;15.18;56.53;98047.88;5015858;28;20027;-74
2024/04/07 04:34:08;;;;;;;4.28;2.10;;;;;;;15.20;56.59;98074.69;5018453;28;20079;-74
2024/04/07 04:36:34;;;;;;;5.60;2.00;;;;;;;15.19;56.91;98075.81;5022433;28;20404;-74
2024/04/07 04:38:59;;;;;;;4.72;2.15;;;;;;;15.19;57.33;98084.75;5030353;28;20025;-74
2024/04/07 04:41:25;;;;;;;3.38;2.35;;;;;;;15.02;57.86;98080.72;4999724;28;20433;-74
2024/04/07 04:43:50;;;;;;;2.83;2.20;;;;;;;14.93;58.06;98082.38;5015920;28;20052;-74
2024/04/07 04:46:16;;;;;;;4.78;2.10;;;;;;;14.95;58.38;98094.59;4996022;28;20038;-74
2024/04/07 04:48:42;;;;;;;3.67;2.08;;;;;;;14.86;57.73;98079.97;5040077;28;20034;-74
2024/04/07 04:51:08;;;;;;;4.32;2.30;;;;;;;14.85;58.74;98082.94;5021233;28;20029;-74
2024/04/07 04:53:34;;;;;;;3.97;2.13;;;;;;;14.81;59.40;98096.25;5021191;28;20045;-74
2024/04/07 04:56:01;;;;;;;3.47;2.22;;;;;;;14.70;59.61;98107.38;5019943;28;20025;-75
2024/04/07 04:58:27;;;;;;;4.45;1.88;;;;;;;14.65;59.71;98105.47;5010048;28;20033;-74
2024/04/07 05:00:52;;;;;;;3.03;1.90;;;;;;;14.54;59.46;98085.69;5014974;28;20493;-75
2024/04/07 05:03:18;;;;;;;2.03;1.83;;;;;;;14.60;59.56;98101.94;4983019;28;20748;-75
2024/04/07 05:05:43;;;;;;;4.30;2.10;;;;;;;14.59;60.17;98122.81;5001359;28;20519;-74
2024/04/07 05:08:09;;;;;;;4.10;1.90;;;;;;;14.44;60.77;98115.53;5041450;28;20077;-75
2024/04/07 05:10:34;;;;;;;4.43;2.40;;;;;;;14.47;60.37;98125.81;5036968;28;20037;-75
2024/04/07 05:13:00;;;;;;;3.05;2.83;;;;;;;14.34;60.92;98104.69;4990849;28;20615;-74
2024/04/07 05:15:26;;;;;;;3.25;2.00;;;;;;;14.47;60.91;98128.50;5013590;28;20121;-74
2024/04/07 05:17:52;;;;;;;2.97;2.10;;;;;;;14.38;60.86;98126.59;4990840;28;20462;-74
2024/04/07 05:20:18;;;;;;;3.45;2.05;;;;;;;14.43;60.95;98126.63;5018820;28;20021;-72
2024/04/07 05:22:43;;;;;;;3.13;1.98;;;;;;;14.45;61.07;98143.41;5034171;28;20037;-73
2024/04/07 05:25:09;;;;;;;4.05;2.05;;;;;;;14.47;61.14;98146.66;5008793;28;20428;-73
2024/04/07 05:27:35;;;;;;;5.13;2.58;;;;;;;14.37;61.56;98130.41;5017465;28;20076;-73
2024/04/07 05:30:01;;;;;;;2.17;1.95;;;;;;;14.43;61.61;98151.81;5005962;28;20053;-73
2024/04/07 05:32:26;;;;;;;3.33;2.22;;;;;;;14.48;61.28;98153.72;5015008;28;20052;-72
2024/04/07 05:34:52;;;;;;;3.88;2.00;;;;;;;14.47;61.79;98168.34;5040869;28;20033;-73
2024/04/07 05:37:17;;;;;;;3.78;2.22;;;;;;;14.49;61.57;98164.28;5038244;28;20045;-73
2024/04/07 05:39:52;;;;;;;3.08;2.40;;;;;;;14.56;61.25;98183.00;5012459;28;20021;-73
2024/04/07 05:42:18;;;;;;;4.10;2.22;;;;;;;14.59;61.30;98176.19;5022959;28;20068;-72
2024/04/07 05:44:44;;;;;;;4.00;2.17;;;;;;;14.68;61.98;98174.59;4998073;28;20033;-72
2024/04/07 05:47:09;;;;;;;4.13;2.50;;;;;;;14.79;62.15;98190.59;4999539;28;20109;-72
2024/04/07 05:49:35;;;;;;;3.20;2.72;;;;;;;14.82;62.31;98173.78;5028123;28;20025;-72
2024/04/07 05:52:01;;;;;;;4.60;2.90;;;;;;;14.89;61.81;98182.44;5014790;28;20033;-72
2024/04/07 05:54:29;;;;;;;5.32;3.08;;;;;;;14.98;61.88;98191.66;4998099;28;20036;-73
2024/04/07 05:56:55;;;;;;;5.05;2.92;;;;;;;15.07;61.87;98194.66;4998213;28;20037;-72
2024/04/07 05:59:20;;;;;;;3.30;2.45;;;;;;;15.39;59.71;98221.44;5013721;28;20438;-72
2024/04/07 06:01:46;;;;;;;4.13;2.85;;;;;;;15.43;59.66;98192.66;4998475;28;20045;-72
2024/04/07 06:04:11;;;;;;;4.72;2.85;;;;;;;15.54;58.47;98195.09;4994513;28;20072;-72
2024/04/07 06:06:37;;;;;;;5.97;2.95;;;;;;;15.69;58.84;98203.22;5029810;28;20029;-72
2024/04/07 06:09:03;;;;;;;4.50;3.10;;;;;;;15.80;58.66;98199.38;4993693;28;20018;-72
2024/04/07 06:11:29;;;;;;;5.10;3.20;;;;;;;15.95;57.95;98201.22;4995386;28;20037;-74
2024/04/07 06:13:54;;;;;;;3.60;2.50;;;;;;;16.02;58.25;98204.44;5002389;28;20030;-72
2024/04/07 06:16:20;;;;;;;3.47;2.10;;;;;;;16.05;59.03;98219.38;5011588;28;20033;-72
2024/04/07 06:18:51;;;;;;;3.50;2.70;;;;;;;16.11;59.19;98204.66;5030260;28;20104;-73
2024/04/07 06:21:17;;;;;;;4.53;2.50;;;;;;;16.21;59.40;98215.47;5021723;28;20481;-72
2024/04/07 06:23:42;;;;;;;4.45;2.50;;;;;;;16.14;59.89;98207.66;5014062;28;20021;-73
2024/04/07 06:26:08;;;;;;;4.50;2.58;;;;;;;16.32;58.99;98223.28;5014075;28;20037;-74
2024/04/07 06:28:34;;;;;;;3.63;2.47;;;;;;;16.35;58.36;98216.50;5021969;28;20120;-73
2024/04/07 06:30:59;;;;;;;2.53;2.33;;;;;;;16.43;59.80;98233.00;4996901;28;20042;-73
2024/04/07 06:33:26;;;;;;;2.65;2.10;;;;;;;16.52;58.39;98233.28;5015316;28;20032;-73
2024/04/07 06:35:55;;;;;;;2.50;2.20;;;;;;;16.63;57.72;98225.84;5013952;28;20404;-73
2024/04/07 06:38:20;;;;;;;4.40;2.58;;;;;;;16.69;57.76;98222.81;5013609;28;20480;-73
2024/04/07 06:40:45;;;;;;;3.35;2.10;;;;;;;16.73;57.09;98196.69;5013207;28;20041;-73
2024/04/07 06:43:11;;;;;;;4.05;2.33;;;;;;;16.96;56.14;98216.91;4994375;28;20030;-77
2024/04/07 06:45:36;;;;;;;5.43;2.10;;;;;;;17.06;55.88;98216.84;4997194;28;20063;-73
2024/04/07 06:48:02;;;;;;;4.75;3.05;;;;;;;17.14;55.65;98218.91;5013490;28;20033;-73
2024/04/07 06:50:27;;;;;;;4.72;2.40;;;;;;;17.27;54.65;98218.25;4996761;28;20072;-72
2024/04/07 06:52:52;;;;;;;8.30;7.18;;;;;;;17.39;54.76;98231.47;5013586;28;20106;-73
2024/04/07 06:55:19;;;;;;;10.35;9.25;;;;;;;17.41;54.83;98221.91;5013606;28;20046;-72
2024/04/07 06:57:44;;;;;;;7.10;5.93;;;;;;;17.62;54.30;98239.69;5031140;28;20124;-73
2024/04/07 07:00:12;;;;;;;4.85;3.20;;;;;;;17.63;53.63;98222.28;5013878;28;20057;-73
2024/04/07 07:02:37;;;;;;;3.50;2.40;;;;;;;17.79;53.27;98215.56;5007368;28;20033;-72
2024/04/07 07:05:03;;;;;;;3.50;2.10;;;;;;;17.92;53.62;98228.47;4984955;28;20386;-73
2024/04/07 07:07:28;;;;;;;3.22;2.30;;;;;;;17.92;52.64;98214.06;5035242;28;20104;-73
2024/04/07 07:09:53;;;;;;;3.08;2.38;;;;;;;18.08;53.03;98233.75;5041635;28;20060;-73
2024/04/07 07:12:19;;;;;;;4.57;2.20;;;;;;;18.19;52.08;98221.59;5001359;28;20025;-73
2024/04/07 07:14:44;;;;;;;4.45;2.00;;;;;;;18.30;51.63;98225.81;5035072;28;20041;-73
2024/04/07 07:17:10;;;;;;;3.25;2.30;;;;;;;18.36;51.56;98219.19;5019973;28;20032;-72
2024/04/07 07:19:35;;;;;;;2.60;2.20;;;;;;;18.49;50.63;98230.22;5017343;28;20127;-73
2024/04/07 07:22:00;;;;;;;5.40;2.40;;;;;;;18.46;51.02;98224.53;5008369;28;20029;-72
2024/04/07 07:24:26;;;;;;;2.78;2.03;;;;;;;18.71;51.60;98254.19;5004353;28;20087;-74
2024/04/07 07:26:51;;;;;;;3.40;2.47;;;;;;;18.65;50.77;98228.06;5033758;28;20404;-72
2024/04/07 07:29:16;;;;;;;3.58;2.03;;;;;;;18.93;49.41;98262.56;4996706;28;20029;-72
2024/04/07 07:31:42;;;;;;;2.50;2.15;;;;;;;18.96;49.56;98255.69;4982692;28;20021;-71
2024/04/07 07:34:08;;;;;;;3.63;2.53;;;;;;;19.00;50.25;98268.47;5034758;28;20408;-73
2024/04/07 07:36:33;;;;;;;3.85;2.50;;;;;;;19.14;49.80;98285.69;5017007;28;20056;-73
2024/04/07 07:38:59;;;;;;;3.28;2.15;;;;;;;19.12;49.45;98271.53;5016337;28;20496;-73
2024/04/07 07:41:25;;;;;;;3.35;2.10;;;;;;;19.24;49.01;98274.63;5024968;28;20040;-73
2024/04/07 07:43:50;;;;;;;2.33;2.00;;;;;;;19.34;48.77;98276.38;5020365;28;20048;-72
2024/04/07 07:46:15;;;;;;;3.20;2.03;;;;;;;19.27;48.74;98268.56;5022488;23;21247;-76
2024/04/07 07:48:41;;;;;;;3.38;2.17;;;;;;;19.37;49.06;98277.75;5012805;28;20044;-77
2024/04/07 07:51:13;;;;;;;3.47;2.05;;;;;;;19.40;49.28;98293.50;5003915;28;20124;-77
2024/04/07 07:53:39;;;;;;;3.53;2.33;;;;;;;19.41;49.00;98293.22;4999640;28;20045;-77
2024/04/07 07:56:08;;;;;;;2.17;1.90;;;;;;;19.47;48.24;98315.78;5004390;28;20025;-77
2024/04/07 07:58:35;;;;;;;3.97;2.28;;;;;;;19.41;48.30;98303.34;5002314;28;20029;-77
2024/04/07 08:01:00;;;;;;;3.47;2.20;;;;;;;19.48;48.93;98309.22;5003925;28;20665;-78
2024/04/07 08:03:25;;;;;;;5.03;2.25;;;;;;;19.63;48.61;98314.41;4984352;28;20133;-77
2024/04/07 08:05:51;;;;;;;4.45;2.13;;;;;;;19.68;48.27;98303.41;5020417;28;20108;-77
2024/04/07 08:08:16;;;;;;;3.40;2.50;;;;;;;19.76;48.65;98303.53;5000346;28;20045;-78
2024/04/07 08:10:42;;;;;;;2.53;2.30;;;;;;;19.82;47.86;98301.50;5002721;28;20112;-77
2024/04/07 08:13:07;;;;;;;4.57;2.40;;;;;;;19.96;47.94;98302.34;5003819;28;20416;-77
2024/04/07 08:15:32;;;;;;;2.17;1.98;;;;;;;20.00;48.38;98300.59;5001477;28;20048;-77
2024/04/07 08:17:58;;;;;;;3.17;2.08;;;;;;;20.23;47.37;98324.28;4996087;28;20077;-77
2024/04/07 08:20:23;;;;;;;2.33;2.10;;;;;;;20.24;47.24;98314.94;4994853;28;20034;-77
2024/04/07 08:22:49;;;;;;;4.60;2.35;;;;;;;20.29;47.66;98312.09;4978462;28;20033;-76
2024/04/07 08:25:14;;;;;;;2.97;2.03;;;;;;;20.44;46.82;98325.47;4977878;28;20406;-77
2024/04/07 08:27:40;;;;;;;3.42;2.15;;;;;;;20.42;47.22;98303.06;4984923;28;20041;-78
2024/04/07 08:30:07;;;;;;;3.85;2.10;;;;;;;20.57;46.58;98305.50;4984431;28;20065;-77
2024/04/07 08:32:32;;;;;;;7.22;3.00;;;;;;;20.81;46.89;98331.81;4986767;28;20044;-77
2024/04/07 08:34:58;;;;;;;3.85;2.10;;;;;;;20.88;46.90;98335.75;5003613;28;20029;-77
2024/04/07 08:37:25;;;;;;;5.20;2.17;;;;;;;20.96;46.41;98315.03;4989584;28;20048;-77
2024/04/07 08:39:50;;;;;;;5.20;2.50;;;;;;;21.23;46.88;98328.69;4993545;28;20118;-77
2024/04/07 08:42:16;;;;;;;3.88;2.75;;;;;;;21.28;46.21;98328.56;4987057;28;20511;-77
2024/04/07 08:44:43;;;;;;;3.10;2.00;;;;;;;21.40;45.37;98336.25;4986357;28;20424;-77
2024/04/07 08:47:11;;;;;;;3.75;1.85;;;;;;;21.46;45.78;98319.34;4997217;28;20041;-77
2024/04/07 08:49:37;;;;;;;4.90;2.13;;;;;;;21.56;44.22;98324.59;5030896;28;20033;-78
2024/04/07 08:52:03;;;;;;;4.15;2.13;;;;;;;21.68;43.99;98311.09;5002693;28;20124;-77
2024/04/07 08:54:28;;;;;;;3.15;2.00;;;;;;;21.22;44.89;98236.66;4982257;28;20497;-77
2024/04/07 08:56:55;;;;;;;5.13;2.65;;;;;;;21.76;44.70;98296.66;4985356;28;20056;-77
2024/04/07 08:59:23;;;;;;;3.55;2.00;;;;;;;22.02;44.71;98305.84;5000698;28;20026;-77
2024/04/07 09:01:51;;;;;;;5.82;2.20;;;;;;;22.09;43.64;98288.94;4985887;28;20133;-77
2024/04/07 09:04:17;;;;;;;8.23;2.10;;;;;;;22.08;43.44;98294.75;4996950;28;20395;-77
2024/04/07 09:06:43;;;;;;;5.72;2.38;;;;;;;22.18;42.67;98280.72;4986522;28;20037;-77
2024/04/07 09:09:09;;;;;;;4.00;2.10;;;;;;;22.28;42.82;98283.19;4996902;28;20025;-77
2024/04/07 09:11:38;;;;;;;7.13;2.25;;;;;;;22.29;43.60;98254.59;4999575;28;20037;-77
2024/04/07 09:14:07;;;;;;;3.72;2.00;;;;;;;22.68;43.98;98284.78;4998095;28;20040;-77
2024/04/07 09:16:33;;;;;;;3.25;1.83;;;;;;;22.82;42.30;98285.44;5017341;28;20087;-77
2024/04/07 09:18:59;;;;;;;6.65;2.10;;;;;;;22.74;42.46;98286.22;4986179;28;20033;-77
2024/04/07 09:21:24;;;;;;;3.92;2.42;;;;;;;22.81;42.65;98294.00;4992236;28;20037;-77
2024/04/07 09:23:50;;;;;;;4.13;2.40;;;;;;;22.97;41.79;98317.13;4998174;28;20029;-77
2024/04/07 09:26:24;;;;;;;6.22;2.17;;;;;;;22.93;41.87;98303.22;4979117;28;20076;-77
2024/04/07 09:28:50;;;;;;;4.45;2.33;;;;;;;22.84;42.61;98305.16;4983434;28;20037;-77
2024/04/07 09:31:16;;;;;;;6.68;1.95;;;;;;;22.44;40.96;98267.91;4980350;28;20114;-78
2024/04/07 09:33:44;;;;;;;3.20;1.85;;;;;;;22.81;40.48;98305.78;5030507;28;20087;-77
2024/04/07 09:36:10;;;;;;;6.18;2.13;;;;;;;22.77;41.28;98315.81;5000328;28;20032;-77
2024/04/07 09:38:35;;;;;;;6.82;2.00;;;;;;;22.65;41.82;98323.84;5000386;28;20034;-77
2024/04/07 09:41:01;;;;;;;5.82;2.30;;;;;;;22.73;42.17;98342.31;4996088;28;20092;-77
2024/04/07 09:43:29;;;;;;;8.07;2.55;;;;;;;22.65;42.40;98334.84;4999207;28;20041;-77
2024/04/07 09:45:55;;;;;;;4.63;2.22;;;;;;;22.63;42.33;98354.38;4994573;28;20033;-77
2024/04/07 09:48:21;;;;;;;4.93;2.08;;;;;;;22.79;41.48;98362.97;4992474;28;20044;-77
2024/04/07 09:50:54;;;;;;;5.63;2.10;;;;;;;22.65;40.90;98356.81;5014987;28;20032;-77
2024/04/07 09:53:21;;;;;;;7.78;2.03;;;;;;;22.60;40.93;98357.75;4997222;28;20481;-77
2024/04/07 09:55:50;;;;;;;4.07;2.20;;;;;;;22.79;40.40;98368.47;4998771;28;20057;-77
2024/04/07 09:58:16;;;;;;;5.22;2.13;;;;;;;22.56;41.64;98343.03;4998728;28;20040;-77
2024/04/07 10:00:43;;;;;;;5.47;2.17;;;;;;;22.53;41.94;98340.09;5014469;28;20025;-77
2024/04/07 10:03:10;;;;;;;6.50;2.65;;;;;;;22.51;42.01;98348.66;4998806;28;20037;-77
2024/04/07 10:05:36;;;;;;;4.90;2.10;;;;;;;22.50;41.19;98357.19;4982787;28;20025;-77
2024/04/07 10:08:02;;;;;;;5.20;2.42;;;;;;;22.72;41.35;98357.16;4997238;28;20041;-77
2024/04/07 10:10:27;;;;;;;4.25;2.72;;;;;;;22.79;41.79;98365.72;4999563;28;20073;-77
2024/04/07 10:12:53;;;;;;;4.90;2.10;;;;;;;22.73;41.46;98345.03;5015445;28;20112;-77
2024/04/07 10:15:20;;;;;;;6.68;1.90;;;;;;;22.85;42.77;98358.16;5015304;28;20104;-77
2024/04/07 10:17:46;;;;;;;3.67;2.33;;;;;;;22.87;41.37;98359.44;4993651;28;20129;-77
2024/04/07 10:20:14;;;;;;;6.15;2.70;;;;;;;22.68;42.48;98356.97;5011145;28;20105;-77
2024/04/07 10:22:41;;;;;;;6.88;2.20;;;;;;;22.96;42.19;98390.50;5001557;28;20038;-77
2024/04/07 10:25:07;;;;;;;5.18;2.10;;;;;;;22.86;42.51;98390.78;4999908;28;20033;-77
2024/04/07 10:27:41;;;;;;;5.53;2.45;;;;;;;22.86;41.84;98379.81;4999662;28;20029;-77
2024/04/07 10:30:09;;;;;;;5.13;2.30;;;;;;;22.98;40.94;98371.75;5000235;28;20033;-77
2024/04/07 10:32:38;;;;;;;4.70;2.15;;;;;;;22.97;42.36;98352.81;4998614;28;20044;-77
2024/04/07 10:35:11;;;;;;;4.50;2.45;;;;;;;23.00;42.08;98383.22;4999116;28;20046;-77
2024/04/07 10:37:41;;;;;;;5.22;2.00;;;;;;;22.98;41.93;98365.44;5034954;28;20037;-77
2024/04/07 10:40:09;;;;;;;5.78;2.95;;;;;;;22.99;42.26;98383.53;5003229;28;20103;-78
2024/04/07 10:42:36;;;;;;;6.55;2.35;;;;;;;23.03;42.82;98357.88;5000523;28;20028;-77
2024/04/07 10:45:03;;;;;;;13.45;6.28;;;;;;;23.17;42.13;98380.53;4995694;28;20056;-77
2024/04/07 10:47:29;;;;;;;4.35;2.38;;;;;;;23.21;41.75;98380.66;5015046;28;20032;-76
2024/04/07 10:49:55;;;;;;;3.97;2.03;;;;;;;23.12;41.68;98347.69;4991535;28;20030;-74
2024/04/07 10:52:20;;;;;;;5.15;2.45;;;;;;;23.21;42.37;98366.94;5009803;28;20495;-75
2024/04/07 10:54:45;;;;;;;9.25;4.18;;;;;;;23.18;42.77;98376.63;5001434;28;20465;-77
2024/04/07 10:57:15;;;;;;;7.97;3.70;;;;;;;23.09;42.01;98378.56;5017122;28;20025;-78
2024/04/07 10:59:41;;;;;;;5.88;2.20;;;;;;;23.33;43.57;98373.41;4977611;28;20092;-77
2024/04/07 11:02:11;;;;;;;4.10;1.95;;;;;;;23.44;42.04;98375.84;5003620;28;20025;-77
2024/04/07 11:04:36;;;;;;;5.10;2.00;;;;;;;23.35;42.45;98371.19;4996446;28;20405;-77
2024/04/07 11:07:03;;;;;;;7.28;2.00;;;;;;;23.33;41.53;98381.66;4973293;28;20025;-77
2024/04/07 11:09:28;;;;;;;6.88;2.28;;;;;;;23.23;40.82;98362.72;5014365;28;20552;-76
2024/04/07 11:11:54;;;;;;;7.20;1.80;;;;;;;23.18;40.64;98362.88;5000496;28;20099;-75
2024/04/07 11:14:27;;;;;;;7.13;2.38;;;;;;;23.29;41.52;98386.16;4994151;28;20531;-77
2024/04/07 11:17:01;;;;;;;7.57;2.03;;;;;;;23.12;41.14;98361.44;4999334;28;20061;-77
2024/04/07 11:19:26;;;;;;;8.40;2.20;;;;;;;23.30;40.59;98390.53;4997258;28;20400;-77
2024/04/07 11:21:52;;;;;;;5.35;2.08;;;;;;;23.33;41.68;98384.41;5006316;28;20021;-77
2024/04/07 11:24:18;;;;;;;5.38;1.75;;;;;;;23.24;41.66;98378.06;5009230;28;20126;-77
2024/04/07 11:26:44;;;;;;;5.03;2.00;;;;;;;23.27;41.11;98369.19;4975276;28;20025;-77
2024/04/07 11:29:11;;;;;;;4.63;1.90;;;;;;;23.36;42.36;98389.28;4976168;28;20038;-77
2024/04/07 11:31:36;;;;;;;6.13;2.22;;;;;;;23.29;43.44;98366.13;4993133;28;20036;-77